Time;durP1;ratioP1;P1;durP2;ratioP2;P2;SDS_P1;SDS_P2;PMS_P1;PMS_P2;Temp;Humidity;BMP_temperature;BMP_pressure;BME280_temperature;BME280_humidity;BME280_pressure;Samples;Min_cycle;Max_cycle;Signal;HPM_P1;HPM_P2
2023/05/26 00:01:46;;;;;;;0.00;0.00;;;;;;;;;;5109171;28;20506;-87
2023/05/26 00:04:18;;;;;;;0.00;0.00;;;;;;;;;;5100891;28;20024;-88
2023/05/26 00:06:46;;;;;;;0.20;0.20;;;;;;;;;;5125352;28;20033;-89
2023/05/26 00:09:13;;;;;;;0.10;0.10;;;;;;;;;;5093388;28;20031;-85
2023/05/26 00:11:39;;;;;;;0.10;0.10;;;;;;;;;;5064300;28;1214986;-86
2023/05/26 00:14:10;;;;;;;0.00;0.00;;;;;;;;;;5096241;28;20036;-87
2023/05/26 00:16:38;;;;;;;0.15;0.15;;;;;;;;;;5090299;28;20050;-87
2023/05/26 00:19:07;;;;;;;0.00;0.00;;;;;;;;;;5091931;28;20043;-90
2023/05/26 00:21:34;;;;;;;0.00;0.00;;;;;;;;;;5090810;28;20034;-88
2023/05/26 00:24:00;;;;;;;0.00;0.00;;;;;;;;;;5096638;28;20028;-86
2023/05/26 00:26:30;;;;;;;0.00;0.00;;;;;;;;;;5102050;28;20035;-88
2023/05/26 00:28:58;;;;;;;0.10;0.10;;;;;;;;;;5100787;28;20027;-86
2023/05/26 00:31:24;;;;;;;0.00;0.00;;;;;;;;;;5102268;28;20384;-86
2023/05/26 00:33:52;;;;;;;0.10;0.10;;;;;;;;;;5098332;28;20016;-87
2023/05/26 00:36:18;;;;;;;0.05;0.05;;;;;;;;;;5100190;28;20040;-86
2023/05/26 00:38:46;;;;;;;0.00;0.00;;;;;;;;;;5103021;28;20080;-86
2023/05/26 00:41:11;;;;;;;0.00;0.00;;;;;;;;;;5087882;28;20024;-86
2023/05/26 00:43:37;;;;;;;1.48;0.32;;;;;;;;;;5085251;28;20080;-87
2023/05/26 00:46:03;;;;;;;0.10;0.10;;;;;;;;;;5093792;28;20027;-89
2023/05/26 00:48:28;;;;;;;0.00;0.00;;;;;;;;;;5114324;27;20036;-90
2023/05/26 00:50:54;;;;;;;1.00;0.45;;;;;;;;;;5100480;28;20026;-90
2023/05/26 00:53:20;;;;;;;0.00;0.00;;;;;;;;;;5092673;28;20043;-89
2023/05/26 00:55:51;;;;;;;0.20;0.15;;;;;;;;;;5094653;28;20038;-91
2023/05/26 00:58:17;;;;;;;0.10;0.10;;;;;;;;;;5087111;28;20430;-92
2023/05/26 01:00:43;;;;;;;0.10;0.10;;;;;;;;;;5106215;28;20069;-86
2023/05/26 01:03:11;;;;;;;0.00;0.00;;;;;;;;;;5106065;28;20023;-90
2023/05/26 01:05:53;;;;;;;0.08;0.08;;;;;;;;;;5108790;28;20430;-90
2023/05/26 01:08:24;;;;;;;0.03;0.03;;;;;;;;;;5088120;28;20031;-88
2023/05/26 01:10:54;;;;;;;0.00;0.00;;;;;;;;;;5089011;28;20024;-87
2023/05/26 01:13:24;;;;;;;;;;;;;;;;;;5069257;28;20072;-90
2023/05/26 01:15:53;;;;;;;1.10;0.30;;;;;;;;;;5070326;28;20393;-90
2023/05/26 01:18:54;;;;;;;0.00;0.00;;;;;;;;;;5074381;28;20108;-89
2023/05/26 01:21:21;;;;;;;0.22;0.22;;;;;;;;;;5057937;28;20111;-88
2023/05/26 01:23:53;;;;;;;0.10;0.10;;;;;;;;;;5095546;28;20092;-89
2023/05/26 01:26:25;;;;;;;0.00;0.00;;;;;;;;;;5072441;28;20403;-86
2023/05/26 01:28:57;;;;;;;0.10;0.10;;;;;;;;;;5089851;28;20055;-89
2023/05/26 01:31:26;;;;;;;0.03;0.03;;;;;;;;;;5066207;28;20392;-90
2023/05/26 01:34:10;;;;;;;2.85;0.43;;;;;;;;;;5064790;28;20035;-86
2023/05/26 01:36:36;;;;;;;0.00;0.00;;;;;;;;;;5058247;28;20468;-90
2023/05/26 01:39:10;;;;;;;0.00;0.00;;;;;;;;;;5071721;28;20056;-87
2023/05/26 01:42:05;;;;;;;0.03;0.03;;;;;;;;;;5062613;28;20036;-89
2023/05/26 01:44:35;;;;;;;0.00;0.00;;;;;;;;;;5058030;28;20365;-88
2023/05/26 01:47:03;;;;;;;0.00;0.00;;;;;;;;;;5071926;28;20029;-88
2023/05/26 01:49:29;;;;;;;0.00;0.00;;;;;;;;;;5098313;28;20032;-87
2023/05/26 01:52:01;;;;;;;0.10;0.10;;;;;;;;;;5060112;28;20031;-86
2023/05/26 01:54:29;;;;;;;0.00;0.00;;;;;;;;;;5074460;28;20039;-86
2023/05/26 01:56:56;;;;;;;0.00;0.00;;;;;;;;;;5072491;28;20464;-87
2023/05/26 01:59:26;;;;;;;0.10;0.10;;;;;;;;;;5071368;28;20448;-86
2023/05/26 02:01:51;;;;;;;0.38;0.38;;;;;;;;;;5080718;28;20078;-88
2023/05/26 02:04:20;;;;;;;0.00;0.00;;;;;;;;;;5076212;28;20032;-85
2023/05/26 02:06:52;;;;;;;0.00;0.00;;;;;;;;;;5078066;28;20468;-86
2023/05/26 02:09:18;;;;;;;0.00;0.00;;;;;;;;;;5061427;28;20025;-87
2023/05/26 02:11:48;;;;;;;0.10;0.10;;;;;;;;;;5086903;28;20105;-87
2023/05/26 02:14:13;;;;;;;0.00;0.00;;;;;;;;;;5094111;28;20091;-87
2023/05/26 02:16:43;;;;;;;0.00;0.00;;;;;;;;;;5131598;27;20078;-88
2023/05/26 02:19:08;;;;;;;0.08;0.08;;;;;;;;;;5130068;27;20031;-90
2023/05/26 02:21:35;;;;;;;0.10;0.10;;;;;;;;;;5098528;28;20043;-88
2023/05/26 02:24:01;;;;;;;0.00;0.00;;;;;;;;;;5116537;28;20028;-86
2023/05/26 02:26:27;;;;;;;0.08;0.08;;;;;;;;;;5114723;28;20044;-87
2023/05/26 02:28:55;;;;;;;0.20;0.20;;;;;;;;;;5130063;27;20433;-87
2023/05/26 02:31:21;;;;;;;0.00;0.00;;;;;;;;;;5112906;28;20024;-87
2023/05/26 02:33:46;;;;;;;0.10;0.10;;;;;;;;;;5098280;28;20035;-88
2023/05/26 02:36:13;;;;;;;0.13;0.13;;;;;;;;;;5109288;28;20027;-88
2023/05/26 02:38:39;;;;;;;0.08;0.08;;;;;;;;;;5094803;28;20050;-86
2023/05/26 02:41:07;;;;;;;0.00;0.00;;;;;;;;;;5116321;28;20024;-88
2023/05/26 02:43:33;;;;;;;0.10;0.10;;;;;;;;;;5108020;28;20031;-87
2023/05/26 02:45:59;;;;;;;0.47;0.47;;;;;;;;;;5133198;27;20039;-86
2023/05/26 02:48:24;;;;;;;0.20;0.20;;;;;;;;;;5112964;28;20108;-87
2023/05/26 02:50:50;;;;;;;0.20;0.20;;;;;;;;;;5116673;28;20051;-86
2023/05/26 02:53:16;;;;;;;1.20;0.15;;;;;;;;;;5093876;28;20027;-85
2023/05/26 02:55:42;;;;;;;0.20;0.10;;;;;;;;;;5111598;28;20027;-86
2023/05/26 02:58:12;;;;;;;0.10;0.10;;;;;;;;;;5115650;28;20467;-85
2023/05/26 03:00:37;;;;;;;;;;;;;;;;;;5091190;28;20019;-85
2023/05/26 03:03:03;;;;;;;0.00;0.00;;;;;;;;;;5110137;28;20354;-85
2023/05/26 03:05:28;;;;;;;0.50;0.50;;;;;;;;;;5112762;28;20026;-85
2023/05/26 03:07:54;;;;;;;0.68;0.50;;;;;;;;;;5108410;28;20072;-86
2023/05/26 03:10:22;;;;;;;0.00;0.00;;;;;;;;;;5113567;28;20027;-85
2023/05/26 03:12:47;;;;;;;0.17;0.17;;;;;;;;;;5113645;28;20043;-85
2023/05/26 03:15:13;;;;;;;0.30;0.28;;;;;;;;;;5115525;28;20490;-86
2023/05/26 03:17:41;;;;;;;0.00;0.00;;;;;;;;;;5091458;28;20036;-87
2023/05/26 03:20:14;;;;;;;0.10;0.10;;;;;;;;;;5095722;28;20057;-87
2023/05/26 03:22:40;;;;;;;0.28;0.20;;;;;;;;;;5094898;28;20433;-87
2023/05/26 03:25:08;;;;;;;0.03;0.03;;;;;;;;;;5095461;28;20031;-88
2023/05/26 03:27:40;;;;;;;0.50;0.50;;;;;;;;;;5102391;28;20449;-89
2023/05/26 03:30:06;;;;;;;0.00;0.00;;;;;;;;;;5125635;27;20035;-88
2023/05/26 03:32:32;;;;;;;0.00;0.00;;;;;;;;;;5092212;28;20028;-86
2023/05/26 03:34:57;;;;;;;0.10;0.10;;;;;;;;;;5096897;28;20091;-88
2023/05/26 03:37:22;;;;;;;0.40;0.40;;;;;;;;;;5092305;28;20023;-86
2023/05/26 03:39:48;;;;;;;0.10;0.10;;;;;;;;;;5112830;28;20049;-87
2023/05/26 03:42:14;;;;;;;0.00;0.00;;;;;;;;;;5094933;28;20039;-88
2023/05/26 03:44:39;;;;;;;0.55;0.52;;;;;;;;;;5091719;28;20024;-88
2023/05/26 03:47:05;;;;;;;0.20;0.20;;;;;;;;;;5105353;28;20538;-88
2023/05/26 03:49:30;;;;;;;0.00;0.00;;;;;;;;;;5112585;28;20090;-89
2023/05/26 03:51:56;;;;;;;0.30;0.30;;;;;;;;;;5128274;27;20046;-87
2023/05/26 03:54:21;;;;;;;0.00;0.00;;;;;;;;;;5111705;28;20027;-85
2023/05/26 03:56:47;;;;;;;0.38;0.22;;;;;;;;;;5091974;28;20112;-87
2023/05/26 03:59:16;;;;;;;0.20;0.17;;;;;;;;;;5113499;28;20562;-86
2023/05/26 04:01:41;;;;;;;0.00;0.00;;;;;;;;;;5089840;28;20054;-87
2023/05/26 04:04:07;;;;;;;0.00;0.00;;;;;;;;;;5109743;28;20104;-89
2023/05/26 04:06:37;;;;;;;0.00;0.00;;;;;;;;;;5111321;28;20468;-88
2023/05/26 04:09:04;;;;;;;0.00;0.00;;;;;;;;;;5111007;28;20069;-89
2023/05/26 04:11:38;;;;;;;0.08;0.08;;;;;;;;;;5089425;28;20475;-88
2023/05/26 04:14:06;;;;;;;0.00;0.00;;;;;;;;;;5091394;28;20024;-90
2023/05/26 04:16:32;;;;;;;0.00;0.00;;;;;;;;;;5092110;28;20051;-88
2023/05/26 04:19:03;;;;;;;0.20;0.20;;;;;;;;;;5103194;28;20052;-90
2023/05/26 04:22:00;;;;;;;2.08;0.30;;;;;;;;;;5102757;28;20513;-91
2023/05/26 04:24:27;;;;;;;0.00;0.00;;;;;;;;;;5075971;28;20092;-91
2023/05/26 04:26:52;;;;;;;0.10;0.10;;;;;;;;;;5088244;28;20052;-88
2023/05/26 04:29:20;;;;;;;0.00;0.00;;;;;;;;;;5098341;28;20059;-90
2023/05/26 04:31:46;;;;;;;0.00;0.00;;;;;;;;;;5094020;28;20388;-90
2023/05/26 04:34:11;;;;;;;0.10;0.10;;;;;;;;;;5103611;28;20035;-88
2023/05/26 04:36:39;;;;;;;0.03;0.03;;;;;;;;;;5100025;28;20111;-88
2023/05/26 04:39:06;;;;;;;0.00;0.00;;;;;;;;;;5102327;28;20384;-87
2023/05/26 04:41:32;;;;;;;0.00;0.00;;;;;;;;;;5100139;28;20413;-87
2023/05/26 04:43:58;;;;;;;0.00;0.00;;;;;;;;;;5102812;28;20038;-87
2023/05/26 04:46:24;;;;;;;0.10;0.10;;;;;;;;;;5100934;28;20047;-87
2023/05/26 04:48:49;;;;;;;0.22;0.17;;;;;;;;;;5089502;28;20615;-87
2023/05/26 04:51:15;;;;;;;0.45;0.20;;;;;;;;;;5103390;28;20023;-87
2023/05/26 04:53:40;;;;;;;0.00;0.00;;;;;;;;;;5103425;28;20382;-86
2023/05/26 04:56:06;;;;;;;0.00;0.00;;;;;;;;;;5100045;28;20122;-87
2023/05/26 04:58:36;;;;;;;0.00;0.00;;;;;;;;;;5105202;28;20463;-88
2023/05/26 05:01:02;;;;;;;0.20;0.20;;;;;;;;;;5087057;28;20047;-88
2023/05/26 05:03:34;;;;;;;0.00;0.00;;;;;;;;;;5097460;28;20024;-86
2023/05/26 05:06:00;;;;;;;0.10;0.10;;;;;;;;;;5090470;28;20077;-87
2023/05/26 05:08:26;;;;;;;0.00;0.00;;;;;;;;;;5107636;28;20036;-89
2023/05/26 05:10:51;;;;;;;0.13;0.13;;;;;;;;;;5106348;28;20403;-89
2023/05/26 05:13:17;;;;;;;0.00;0.00;;;;;;;;;;5099741;28;20126;-89
2023/05/26 05:16:05;;;;;;;0.50;0.50;;;;;;;;;;5096487;28;20031;-89
2023/05/26 05:18:30;;;;;;;0.10;0.10;;;;;;;;;;5083218;28;20528;-86
2023/05/26 05:20:56;;;;;;;0.30;0.30;;;;;;;;;;5087847;28;20028;-88
2023/05/26 05:23:21;;;;;;;0.00;0.00;;;;;;;;;;5094901;28;20046;-85
2023/05/26 05:25:47;;;;;;;0.00;0.00;;;;;;;;;;5085670;28;20151;-85
2023/05/26 05:28:12;;;;;;;0.10;0.10;;;;;;;;;;5097579;28;20456;-83
2023/05/26 05:30:38;;;;;;;0.03;0.03;;;;;;;;;;5097599;28;20460;-87
2023/05/26 05:33:03;;;;;;;0.00;0.00;;;;;;;;;;5092763;28;20078;-86
2023/05/26 05:35:28;;;;;;;0.00;0.00;;;;;;;;;;5087770;28;20928;-84
2023/05/26 05:37:56;;;;;;;0.00;0.00;;;;;;;;;;5107549;28;20027;-86
2023/05/26 05:40:22;;;;;;;0.10;0.10;;;;;;;;;;5097008;28;20060;-86
2023/05/26 05:42:47;;;;;;;0.00;0.00;;;;;;;;;;5103922;28;20059;-85
2023/05/26 05:45:12;;;;;;;0.00;0.00;;;;;;;;;;5102267;28;20027;-86
2023/05/26 05:47:38;;;;;;;0.10;0.10;;;;;;;;;;5107448;28;20019;-85
2023/05/26 05:50:04;;;;;;;0.00;0.00;;;;;;;;;;5103415;28;20031;-85
2023/05/26 05:52:29;;;;;;;0.17;0.17;;;;;;;;;;5102889;28;20383;-81
2023/05/26 05:54:55;;;;;;;0.00;0.00;;;;;;;;;;5102674;28;20039;-85
2023/05/26 05:57:20;;;;;;;0.20;0.20;;;;;;;;;;5095996;28;20023;-85
2023/05/26 05:59:46;;;;;;;0.32;0.32;;;;;;;;;;5104150;28;20024;-84
2023/05/26 06:02:11;;;;;;;0.00;0.00;;;;;;;;;;5101489;28;20045;-84
2023/05/26 06:04:36;;;;;;;0.30;0.30;;;;;;;;;;5096577;28;20074;-80
2023/05/26 06:07:02;;;;;;;0.00;0.00;;;;;;;;;;5095687;28;20034;-83
2023/05/26 06:09:27;;;;;;;0.00;0.00;;;;;;;;;;5102807;28;20024;-84
2023/05/26 06:11:53;;;;;;;0.40;0.35;;;;;;;;;;5102445;28;20040;-84
2023/05/26 06:14:18;;;;;;;0.00;0.00;;;;;;;;;;5109081;28;20035;-84
2023/05/26 06:16:44;;;;;;;0.13;0.13;;;;;;;;;;5113153;28;20030;-87
2023/05/26 06:19:09;;;;;;;0.30;0.30;;;;;;;;;;5109693;28;20064;-84
2023/05/26 06:21:35;;;;;;;0.03;0.03;;;;;;;;;;5112566;28;20027;-83
2023/05/26 06:24:01;;;;;;;0.00;0.00;;;;;;;;;;5103980;28;20042;-85
2023/05/26 06:26:26;;;;;;;0.10;0.10;;;;;;;;;;5110607;28;20019;-84
2023/05/26 06:28:52;;;;;;;0.05;0.05;;;;;;;;;;5111474;28;20123;-90
2023/05/26 06:31:17;;;;;;;0.00;0.00;;;;;;;;;;5113363;28;20383;-89
2023/05/26 06:33:42;;;;;;;0.52;0.52;;;;;;;;;;5106874;28;20043;-85
2023/05/26 06:36:10;;;;;;;0.32;0.30;;;;;;;;;;5114051;28;20350;-88
2023/05/26 06:38:37;;;;;;;0.00;0.00;;;;;;;;;;5109291;28;20041;-86
2023/05/26 06:41:02;;;;;;;0.20;0.20;;;;;;;;;;5091034;28;20023;-85
2023/05/26 06:43:27;;;;;;;0.20;0.20;;;;;;;;;;5104343;28;20050;-86
2023/05/26 06:45:53;;;;;;;0.22;0.22;;;;;;;;;;5108233;28;20357;-88
2023/05/26 06:48:18;;;;;;;0.17;0.17;;;;;;;;;;5110844;28;20391;-89
2023/05/26 06:50:44;;;;;;;0.10;0.10;;;;;;;;;;5110539;28;20102;-85
2023/05/26 06:53:09;;;;;;;0.00;0.00;;;;;;;;;;5105080;28;20027;-84
2023/05/26 06:55:35;;;;;;;0.43;0.32;;;;;;;;;;5104344;28;20176;-84
2023/05/26 06:58:00;;;;;;;0.98;0.75;;;;;;;;;;5110608;28;20019;-85
2023/05/26 07:00:25;;;;;;;0.00;0.00;;;;;;;;;;5108895;28;20098;-84
2023/05/26 07:02:51;;;;;;;0.00;0.00;;;;;;;;;;5108634;28;20587;-84
2023/05/26 07:05:16;;;;;;;0.00;0.00;;;;;;;;;;5112537;28;20478;-85
2023/05/26 07:07:41;;;;;;;0.00;0.00;;;;;;;;;;5089352;28;20081;-84
2023/05/26 07:10:07;;;;;;;0.22;0.22;;;;;;;;;;5108088;28;20035;-84
2023/05/26 07:12:33;;;;;;;0.45;0.45;;;;;;;;;;5105975;28;20051;-86
2023/05/26 07:14:58;;;;;;;0.05;0.05;;;;;;;;;;5109430;28;20035;-84
2023/05/26 07:17:24;;;;;;;0.00;0.00;;;;;;;;;;5108942;28;20024;-85
2023/05/26 07:19:49;;;;;;;1.10;0.28;;;;;;;;;;5110564;28;20028;-84
2023/05/26 07:22:14;;;;;;;0.00;0.00;;;;;;;;;;5108882;28;20034;-85
2023/05/26 07:24:40;;;;;;;0.35;0.35;;;;;;;;;;5110307;28;20026;-86
2023/05/26 07:27:06;;;;;;;0.90;0.88;;;;;;;;;;5087481;28;20024;-85
2023/05/26 07:29:32;;;;;;;0.00;0.00;;;;;;;;;;5113142;28;20329;-84
2023/05/26 07:31:58;;;;;;;0.00;0.00;;;;;;;;;;5092324;28;20487;-83
2023/05/26 07:34:23;;;;;;;0.10;0.10;;;;;;;;;;5112046;28;20026;-81
2023/05/26 07:36:49;;;;;;;0.15;0.15;;;;;;;;;;5106932;28;20035;-85
2023/05/26 07:39:14;;;;;;;2.85;0.57;;;;;;;;;;5105548;28;20095;-88
2023/05/26 07:41:40;;;;;;;0.20;0.17;;;;;;;;;;5119635;27;20027;-85
2023/05/26 07:44:05;;;;;;;0.43;0.22;;;;;;;;;;5111112;28;20032;-88
2023/05/26 07:46:30;;;;;;;0.08;0.08;;;;;;;;;;5107332;28;20019;-87
2023/05/26 07:48:56;;;;;;;0.43;0.43;;;;;;;;;;5111757;28;20808;-85
2023/05/26 07:51:21;;;;;;;0.75;0.70;;;;;;;;;;5089620;28;20034;-83
2023/05/26 07:53:47;;;;;;;1.10;0.95;;;;;;;;;;5095141;28;20818;-86
2023/05/26 07:56:12;;;;;;;0.03;0.03;;;;;;;;;;5097646;28;20032;-85
2023/05/26 07:58:39;;;;;;;0.28;0.20;;;;;;;;;;5108676;28;20024;-87
2023/05/26 08:01:07;;;;;;;0.38;0.28;;;;;;;;;;5106522;28;20102;-83
2023/05/26 08:03:51;;;;;;;0.00;0.00;;;;;;;;;;5100873;28;20027;-85
2023/05/26 08:06:16;;;;;;;0.00;0.00;;;;;;;;;;5105049;28;20082;-86
2023/05/26 08:11:30;;;;;;;0.30;0.30;;;;;;;;;;5107294;28;20027;-83
2023/05/26 08:13:59;;;;;;;0.68;0.63;;;;;;;;;;5064623;28;20045;-86
2023/05/26 08:16:27;;;;;;;0.40;0.40;;;;;;;;;;5096730;28;20028;-83
2023/05/26 08:19:03;;;;;;;0.03;0.03;;;;;;;;;;5092874;28;20024;-87
2023/05/26 08:22:06;;;;;;;0.32;0.30;;;;;;;;;;5065716;28;20024;-87
2023/05/26 08:24:31;;;;;;;0.17;0.17;;;;;;;;;;5094189;28;20052;-86
2023/05/26 08:26:57;;;;;;;0.75;0.52;;;;;;;;;;5065052;28;20997;-85
2023/05/26 08:29:23;;;;;;;0.10;0.10;;;;;;;;;;5069095;28;20020;-87
2023/05/26 08:31:59;;;;;;;0.65;0.65;;;;;;;;;;5061619;28;20035;-84
2023/05/26 08:34:33;;;;;;;0.22;0.20;;;;;;;;;;5092826;28;20028;-86
2023/05/26 08:36:59;;;;;;;0.30;0.30;;;;;;;;;;5062711;28;20020;-86
2023/05/26 08:39:24;;;;;;;0.17;0.17;;;;;;;;;;5059820;28;20032;-85
2023/05/26 08:42:00;;;;;;;0.10;0.10;;;;;;;;;;5076348;28;20052;-85
2023/05/26 08:44:31;;;;;;;0.25;0.25;;;;;;;;;;5063614;28;20025;-86
2023/05/26 08:47:10;;;;;;;0.43;0.30;;;;;;;;;;5072609;28;20025;-84
2023/05/26 08:49:41;;;;;;;;;;;;;;;;;;5101847;28;20531;-85
2023/05/26 08:52:13;;;;;;;0.00;0.00;;;;;;;;;;5058498;28;20009;-84
2023/05/26 08:54:45;;;;;;;0.30;0.30;;;;;;;;;;5058492;28;20032;-88
2023/05/26 08:57:12;;;;;;;0.43;0.43;;;;;;;;;;5073090;28;20114;-86
2023/05/26 08:59:42;;;;;;;0.05;0.05;;;;;;;;;;5062985;28;20083;-86
2023/05/26 09:02:11;;;;;;;0.47;0.47;;;;;;;;;;5072827;28;20024;-87
2023/05/26 09:04:37;;;;;;;0.20;0.20;;;;;;;;;;5093115;28;20032;-84
2023/05/26 09:07:14;;;;;;;0.17;0.17;;;;;;;;;;5070644;28;20477;-86
2023/05/26 09:09:51;;;;;;;0.00;0.00;;;;;;;;;;5071012;28;20538;-87
2023/05/26 09:12:30;;;;;;;0.13;0.13;;;;;;;;;;5063088;28;20052;-85
2023/05/26 09:15:05;;;;;;;;;;;;;;;;;;;;;
2023/05/26 09:17:34;;;;;;;0.03;0.03;;;;;;;;;;5079817;28;20384;-84
2023/05/26 09:20:13;;;;;;;0.00;0.00;;;;;;;;;;5083824;28;20036;-87
2023/05/26 09:28:57;;;;;;;0.10;0.10;;;;;;;;;;5076009;28;20028;-85
2023/05/26 09:31:23;;;;;;;0.25;0.20;;;;;;;;;;5076227;28;20040;-85
2023/05/26 09:33:49;;;;;;;0.32;0.32;;;;;;;;;;5070936;28;20468;-83
2023/05/26 09:36:15;;;;;;;0.20;0.20;;;;;;;;;;5073974;28;20051;-86
2023/05/26 09:38:42;;;;;;;0.30;0.30;;;;;;;;;;5077883;28;20025;-84
2023/05/26 09:41:08;;;;;;;0.30;0.30;;;;;;;;;;5074706;28;20028;-84
2023/05/26 09:43:34;;;;;;;0.10;0.10;;;;;;;;;;5079778;28;20380;-84
2023/05/26 09:46:00;;;;;;;0.00;0.00;;;;;;;;;;5080000;28;20020;-81
2023/05/26 09:48:25;;;;;;;0.10;0.10;;;;;;;;;;5085050;28;20024;-85
2023/05/26 09:50:52;;;;;;;0.00;0.00;;;;;;;;;;5076629;28;20111;-87
2023/05/26 09:53:17;;;;;;;0.03;0.03;;;;;;;;;;5080377;28;20035;-87
2023/05/26 09:55:44;;;;;;;0.10;0.10;;;;;;;;;;5076197;28;20024;-84
2023/05/26 09:58:12;;;;;;;0.28;0.28;;;;;;;;;;5072429;28;20427;-83
2023/05/26 10:00:42;;;;;;;0.00;0.00;;;;;;;;;;5081952;28;20028;-82
2023/05/26 10:03:09;;;;;;;0.10;0.10;;;;;;;;;;5078732;28;20024;-84
2023/05/26 10:05:38;;;;;;;0.08;0.08;;;;;;;;;;5073082;28;20039;-87
2023/05/26 10:08:06;;;;;;;0.10;0.10;;;;;;;;;;5073008;28;20481;-86
2023/05/26 10:10:33;;;;;;;0.00;0.00;;;;;;;;;;5073132;28;20039;-87
2023/05/26 10:12:59;;;;;;;0.70;0.55;;;;;;;;;;5094565;28;20579;-87
2023/05/26 10:15:25;;;;;;;0.08;0.08;;;;;;;;;;5101820;28;20023;-82
2023/05/26 10:17:51;;;;;;;0.40;0.40;;;;;;;;;;5106174;28;20024;-84
2023/05/26 10:20:17;;;;;;;0.30;0.30;;;;;;;;;;5108561;28;20034;-85
2023/05/26 10:22:52;;;;;;;0.10;0.10;;;;;;;;;;5105575;28;20055;-85
2023/05/26 10:25:32;;;;;;;0.30;0.30;;;;;;;;;;5094366;28;20015;-86
2023/05/26 10:28:13;;;;;;;0.10;0.10;;;;;;;;;;5109167;28;20024;-86
2023/05/26 10:30:41;;;;;;;0.47;0.10;;;;;;;;;;5095855;28;20027;-84
2023/05/26 10:33:19;;;;;;;0.22;0.22;;;;;;;;;;5108157;28;20149;-81
2023/05/26 10:35:56;;;;;;;0.20;0.20;;;;;;;;;;5086243;28;20111;-86
2023/05/26 10:38:27;;;;;;;0.10;0.10;;;;;;;;;;5112869;28;20382;-87
2023/05/26 10:40:52;;;;;;;0.10;0.10;;;;;;;;;;5114430;28;20031;-84
2023/05/26 10:43:20;;;;;;;0.88;0.52;;;;;;;;;;5104845;28;20023;-85
2023/05/26 10:45:56;;;;;;;0.20;0.20;;;;;;;;;;5115300;28;20045;-84
2023/05/26 10:48:25;;;;;;;0.10;0.10;;;;;;;;;;5104792;28;20028;-83
2023/05/26 10:50:58;;;;;;;0.20;0.20;;;;;;;;;;5103944;28;20031;-89
2023/05/26 10:53:25;;;;;;;0.10;0.10;;;;;;;;;;5109931;28;20028;-86
2023/05/26 10:56:05;;;;;;;0.10;0.10;;;;;;;;;;5109596;28;20027;-86
2023/05/26 10:58:38;;;;;;;0.00;0.00;;;;;;;;;;5108814;28;20028;-87
2023/05/26 11:01:07;;;;;;;0.15;0.15;;;;;;;;;;5109325;28;20502;-86
2023/05/26 11:03:43;;;;;;;0.00;0.00;;;;;;;;;;5121152;27;20078;-88
2023/05/26 11:06:10;;;;;;;0.00;0.00;;;;;;;;;;5123772;27;20032;-86
2023/05/26 11:08:47;;;;;;;0.00;0.00;;;;;;;;;;5109936;28;20020;-86
2023/05/26 11:11:28;;;;;;;0.10;0.10;;;;;;;;;;5110723;28;20032;-86
2023/05/26 11:14:04;;;;;;;0.08;0.08;;;;;;;;;;5098360;28;20040;-88
2023/05/26 11:16:34;;;;;;;0.10;0.10;;;;;;;;;;5100209;28;20116;-86
2023/05/26 11:19:03;;;;;;;0.00;0.00;;;;;;;;;;5101423;28;20059;-88
2023/05/26 11:21:29;;;;;;;0.10;0.10;;;;;;;;;;5096392;28;20040;-85
2023/05/26 11:23:57;;;;;;;0.28;0.28;;;;;;;;;;5099702;28;20058;-87
2023/05/26 11:26:24;;;;;;;0.00;0.00;;;;;;;;;;5100546;28;20047;-84
2023/05/26 11:28:50;;;;;;;0.00;0.00;;;;;;;;;;5098647;28;20031;-84
2023/05/26 11:31:17;;;;;;;0.40;0.40;;;;;;;;;;5089771;28;20054;-83
2023/05/26 11:33:45;;;;;;;0.63;0.50;;;;;;;;;;5095144;28;20024;-84
2023/05/26 11:36:15;;;;;;;2.08;0.40;;;;;;;;;;5106025;28;20111;-82
2023/05/26 11:38:42;;;;;;;0.13;0.10;;;;;;;;;;5086078;28;20111;-86
2023/05/26 11:41:09;;;;;;;0.10;0.10;;;;;;;;;;5103345;28;20133;-84
2023/05/26 11:43:36;;;;;;;0.00;0.00;;;;;;;;;;5101146;28;20102;-84
2023/05/26 11:46:07;;;;;;;0.10;0.10;;;;;;;;;;5102648;28;20494;-85
2023/05/26 11:48:40;;;;;;;0.20;0.20;;;;;;;;;;5097743;28;20630;-85
2023/05/26 11:51:09;;;;;;;0.10;0.10;;;;;;;;;;5104377;28;20127;-85
2023/05/26 11:53:35;;;;;;;0.05;0.05;;;;;;;;;;5101957;28;20491;-87
2023/05/26 11:56:12;;;;;;;0.00;0.00;;;;;;;;;;5095831;28;20128;-89
2023/05/26 11:58:42;;;;;;;0.03;0.03;;;;;;;;;;5102715;28;20028;-89
2023/05/26 12:01:09;;;;;;;0.00;0.00;;;;;;;;;;5089297;28;20085;-86
2023/05/26 12:03:37;;;;;;;0.47;0.47;;;;;;;;;;5096918;28;20024;-87
2023/05/26 12:06:10;;;;;;;0.00;0.00;;;;;;;;;;5099512;28;20035;-85
2023/05/26 12:08:46;;;;;;;0.00;0.00;;;;;;;;;;5100011;28;20020;-85
2023/05/26 12:11:15;;;;;;;0.10;0.10;;;;;;;;;;5099468;28;20386;-87
2023/05/26 12:13:41;;;;;;;;;;;;;;;;;;5078570;28;20058;-86
2023/05/26 12:16:18;;;;;;;0.68;0.63;;;;;;;;;;5082195;28;19920;-86
2023/05/26 12:18:43;;;;;;;0.68;0.32;;;;;;;;;;5072685;28;20077;-86
2023/05/26 12:21:10;;;;;;;0.10;0.10;;;;;;;;;;5076723;28;20368;-88
2023/05/26 12:23:35;;;;;;;0.13;0.13;;;;;;;;;;5075588;28;20123;-86
2023/05/26 12:26:12;;;;;;;0.10;0.10;;;;;;;;;;5074414;28;20124;-86
2023/05/26 12:28:40;;;;;;;0.03;0.03;;;;;;;;;;5075305;28;20361;-85
2023/05/26 12:31:05;;;;;;;0.00;0.00;;;;;;;;;;5080565;28;20427;-85
2023/05/26 12:33:31;;;;;;;0.00;0.00;;;;;;;;;;5078423;28;20044;-85
2023/05/26 12:35:56;;;;;;;0.10;0.10;;;;;;;;;;5087022;28;20028;-87
2023/05/26 12:38:22;;;;;;;0.25;0.25;;;;;;;;;;5081726;28;20024;-87
2023/05/26 12:40:48;;;;;;;0.00;0.00;;;;;;;;;;5080238;28;20476;-87
2023/05/26 12:43:13;;;;;;;0.20;0.20;;;;;;;;;;5080845;28;20052;-86
2023/05/26 12:45:39;;;;;;;0.28;0.28;;;;;;;;;;5077080;28;20060;-88
2023/05/26 12:48:05;;;;;;;0.55;0.40;;;;;;;;;;5084284;28;20032;-87
2023/05/26 12:50:30;;;;;;;0.20;0.20;;;;;;;;;;5075563;28;20020;-88
2023/05/26 12:52:56;;;;;;;0.08;0.08;;;;;;;;;;5077930;28;20028;-87
2023/05/26 12:55:23;;;;;;;0.17;0.17;;;;;;;;;;5078655;28;20031;-87
2023/05/26 12:57:49;;;;;;;0.30;0.30;;;;;;;;;;5080281;28;20392;-86
2023/05/26 13:00:15;;;;;;;0.10;0.10;;;;;;;;;;5078211;28;20031;-86
2023/05/26 13:02:40;;;;;;;0.20;0.15;;;;;;;;;;5071018;28;20052;-84
2023/05/26 13:05:06;;;;;;;0.00;0.00;;;;;;;;;;5078609;28;20035;-84
2023/05/26 13:07:36;;;;;;;0.15;0.15;;;;;;;;;;5077484;28;20476;-85
2023/05/26 13:10:02;;;;;;;0.08;0.08;;;;;;;;;;5109495;27;20039;-86
2023/05/26 13:12:30;;;;;;;0.30;0.30;;;;;;;;;;5086956;28;20473;-84
2023/05/26 13:15:34;;;;;;;0.10;0.10;;;;;;;;;;5082919;28;20460;-86
2023/05/26 13:18:11;;;;;;;0.30;0.20;;;;;;;;;;5078312;28;20470;-88
2023/05/26 13:20:56;;;;;;;0.20;0.20;;;;;;;;;;5085727;28;20020;-88
2023/05/26 13:23:44;;;;;;;0.38;0.20;;;;;;;;;;5091375;28;20027;-88
2023/05/26 13:26:20;;;;;;;0.20;0.20;;;;;;;;;;5087389;28;20031;-87
2023/05/26 13:29:09;;;;;;;0.00;0.00;;;;;;;;;;5113686;28;20035;-86
2023/05/26 13:32:13;;;;;;;;;;;;;;;;;;5112333;28;20455;-86
2023/05/26 13:34:39;;;;;;;0.43;0.40;;;;;;;;;;5060995;28;20395;-85
2023/05/26 13:37:46;;;;;;;0.30;0.22;;;;;;;;;;5067823;28;20040;-90
2023/05/26 13:41:11;;;;;;;0.20;0.20;;;;;;;;;;5066429;28;20116;-92
2023/05/26 13:43:37;;;;;;;0.20;0.20;;;;;;;;;;4964985;28;20050;-89
2023/05/26 13:46:05;;;;;;;8.88;0.30;;;;;;;;;;5046533;28;20032;-89
2023/05/26 13:48:30;;;;;;;0.67;0.33;;;;;;;;;;5062828;28;20041;-84
2023/05/26 13:50:56;;;;;;;0.10;0.10;;;;;;;;;;5064784;28;20040;-89
2023/05/26 13:53:22;;;;;;;0.10;0.10;;;;;;;;;;5054279;28;20465;-92
2023/05/26 13:55:48;;;;;;;0.20;0.20;;;;;;;;;;5067589;28;20051;-87
2023/05/26 13:58:14;;;;;;;0.30;0.20;;;;;;;;;;5072877;28;20025;-88
2023/05/26 14:00:39;;;;;;;0.30;0.20;;;;;;;;;;5069231;28;21034;-86
2023/05/26 14:03:05;;;;;;;0.00;0.00;;;;;;;;;;5071619;28;20083;-85
2023/05/26 14:05:31;;;;;;;0.10;0.10;;;;;;;;;;5053967;28;20028;-87
2023/05/26 14:07:57;;;;;;;0.10;0.10;;;;;;;;;;5070403;28;20098;-87
2023/05/26 14:10:26;;;;;;;0.10;0.10;;;;;;;;;;5070561;28;20119;-85
2023/05/26 14:12:51;;;;;;;0.20;0.17;;;;;;;;;;5047569;28;20048;-85
2023/05/26 14:15:17;;;;;;;0.10;0.10;;;;;;;;;;5079023;28;20118;-84
2023/05/26 14:17:42;;;;;;;0.10;0.10;;;;;;;;;;5086507;28;20111;-85
2023/05/26 14:20:08;;;;;;;0.03;0.03;;;;;;;;;;5079465;28;20353;-83
2023/05/26 14:22:34;;;;;;;0.10;0.10;;;;;;;;;;5083280;28;20028;-85
2023/05/26 14:24:59;;;;;;;0.00;0.00;;;;;;;;;;5079950;28;20025;-82
2023/05/26 14:27:24;;;;;;;0.30;0.30;;;;;;;;;;5074998;28;20467;-83
2023/05/26 14:29:50;;;;;;;0.55;0.20;;;;;;;;;;5111488;27;20111;-85
2023/05/26 14:32:15;;;;;;;0.50;0.50;;;;;;;;;;5081532;28;20486;-84
2023/05/26 14:34:41;;;;;;;0.15;0.15;;;;;;;;;;5083411;28;20032;-81
2023/05/26 14:37:06;;;;;;;0.25;0.25;;;;;;;;;;5076204;28;20048;-81
2023/05/26 14:39:31;;;;;;;0.00;0.00;;;;;;;;;;5079961;28;20051;-81
2023/05/26 14:41:57;;;;;;;0.28;0.20;;;;;;;;;;5076761;28;20028;-87
2023/05/26 14:44:22;;;;;;;0.00;0.00;;;;;;;;;;5084289;28;20027;-88
2023/05/26 14:46:48;;;;;;;0.20;0.20;;;;;;;;;;5078504;28;20079;-86
2023/05/26 14:49:13;;;;;;;0.30;0.15;;;;;;;;;;5083482;28;20035;-86
2023/05/26 14:51:38;;;;;;;0.10;0.10;;;;;;;;;;5087384;28;20410;-81
2023/05/26 14:54:05;;;;;;;1.02;0.75;;;;;;;;;;5077782;28;20464;-85
2023/05/26 14:56:31;;;;;;;1.85;0.82;;;;;;;;;;5080023;28;20078;-84
2023/05/26 14:58:56;;;;;;;0.20;0.10;;;;;;;;;;5078070;28;20090;-84
2023/05/26 15:01:22;;;;;;;0.10;0.10;;;;;;;;;;5080499;28;20023;-84
2023/05/26 15:03:47;;;;;;;0.00;0.00;;;;;;;;;;5076477;28;20101;-83